• Join FlightAware (Why Join?)
  • Login
  • US Flag 
09:51PM EST


 

Airport Tracker/Info


-or-


 

Live Flight TrackerFlight Track Log ✈ SWA2032 ✈ 05-May-2013 ✈ KDEN - KSAT

Flight Track Log - Related Links

Times and Time Zones

All times are in EDT time to prevent confusion due to time zone crossing. See the SWA2032 flight status page for this flight to view local times or setup timezone preferences in your user account.

Time Position Orientation Groundspeed Altitude Reporting Facility
EDT Latitude Longitude Course Direction KTS MPH feet Rate Location/Type
11:40PM 39.7167 -104.6167 159° South 268 308 10,500  Level Denver TRACON
11:41PM 39.6947 -104.6100 167° South 284 327 11,100 3,600 Climbing Denver Center
11:42PM 39.6006 -104.5703 162° South 337 388 15,500 3,600 Climbing Denver Center
11:43PM 39.5042 -104.5453 169° South 353 406 18,600 2,940 Climbing Denver Center
11:44PM 39.4017 -104.5125 166° South 372 428 21,600 2,940 Climbing Denver Center
11:45PM 39.3539 -104.4979 173° South  Level FlightAware Approximate
11:45PM 39.2978 -104.4678 162° South 392 451 24,600  Level Denver Center
11:46PM 39.1969 -104.3906 149° Southeast 414 476 27,000 2,280 Climbing Denver Center
11:47PM 39.0911 -104.3100 149° Southeast 430 495 29,300 2,040 Climbing Denver Center
11:48PM 38.9800 -104.2275 150° Southeast 451 519 31,200 1,920 Climbing Denver Center
11:49PM 38.8650 -104.1431 150° Southeast 471 542 33,300 1,860 Climbing Denver Center
11:50PM 38.7439 -104.0547 150° Southeast 470 541 35,100 1,860 Climbing Denver Center
11:51PM 38.6356 -103.9753 150° Southeast 468 539 37,200 1,980 Climbing Denver Center
11:52PM 38.5119 -103.8850 150° Southeast 457 526 39,200 1,380 Climbing Denver Center
11:53PM 38.4067 -103.8078 150° Southeast 455 524 40,100 840 Climbing Denver Center
11:54PM 38.2994 -103.7306 151° Southeast 460 529 41,000 420 Climbing Denver Center
11:55PM 38.1736 -103.6411 151° Southeast 461 531 41,000  Level Denver Center
11:56PM 38.0675 -103.5639 150° Southeast 458 527 41,000  Level Denver Center
11:57PM 37.9617 -103.4881 151° Southeast 457 526 41,000  Level Denver Center
11:58PM 37.8375 -103.3992 151° Southeast 457 526 41,000  Level Denver Center
11:59PM 37.7317 -103.3231 150° Southeast 454 522 41,000  Level Denver Center
12:00AM 37.6083 -103.2347 150° Southeast 455 524 41,000  Level Denver Center
12:01AM 37.5014 -103.1592 151° Southeast 456 525 41,000  Level Denver Center
12:02AM 37.3936 -103.0836 151° Southeast 460 529 41,000  Level Denver Center
12:03AM 37.2683 -102.9958 151° Southeast 461 531 41,000  Level Denver Center
12:04AM 37.1419 -102.9094 151° Southeast 463 533 41,000  Level Albuquerque Center
12:05AM 37.0347 -102.8339 151° Southeast 462 532 41,000  Level Albuquerque Center
12:06AM 36.9283 -102.7586 151° Southeast 458 527 41,000  Level Albuquerque Center
12:07AM 36.8025 -102.6733 152° Southeast 460 529 41,000  Level Albuquerque Center
12:08AM 36.6944 -102.5997 151° Southeast 461 531 41,000  Level Albuquerque Center
12:09AM 36.5858 -102.5236 151° Southeast 461 531 41,000  Level Albuquerque Center
12:10AM 36.4731 -102.4461 151° Southeast 462 532 41,000  Level Albuquerque Center
12:11AM 36.3606 -102.3697 151° Southeast 463 533 41,000  Level Albuquerque Center
12:12AM 36.2467 -102.2939 152° Southeast 464 534 41,000  Level Albuquerque Center
12:13AM 36.1336 -102.2147 151° Southeast 466 536 41,000  Level Albuquerque Center
12:14AM 36.0200 -102.1386 152° Southeast 465 535 41,000  Level Albuquerque Center
12:15AM 35.8831 -102.0478 152° Southeast 466 536 41,000  Level Albuquerque Center
12:16AM 35.7697 -101.9714 151° Southeast 465 535 41,000  Level Albuquerque Center
12:17AM 35.6564 -101.8953 151° Southeast 464 534 41,000  Level Albuquerque Center
12:18AM 35.5428 -101.8194 151° Southeast 466 536 41,000  Level Albuquerque Center
12:20AM 35.4294 -101.7436 151° Southeast 468 539 41,000  Level Albuquerque Center
12:21AM 35.3128 -101.6675 152° Southeast 469 540 41,000  Level Albuquerque Center
12:22AM 35.1967 -101.5908 152° Southeast 470 541 41,000  Level Albuquerque Center
12:23AM 35.0811 -101.5150 152° Southeast 467 537 41,000  Level Albuquerque Center
12:24AM 34.9586 -101.4331 151° Southeast 468 539 41,000  Level Albuquerque Center
12:25AM 34.8458 -101.3578 151° Southeast 464 534 41,000  Level Albuquerque Center
12:26AM 34.7314 -101.2825 152° Southeast 467 537 41,000  Level Albuquerque Center
12:27AM 34.6147 -101.2086 152° Southeast 471 542 41,000  Level Albuquerque Center
12:28AM 34.4997 -101.1350 152° Southeast 469 540 41,000  Level Albuquerque Center
12:29AM 34.3853 -101.0603 152° Southeast 468 539 41,000  Level Albuquerque Center
12:29AM 34.3175 -101.0142 151° Southeast 465 535 41,000  Level Fort Worth Center
12:30AM 34.2008 -100.9414 153° Southeast 465 535 41,000  Level Fort Worth Center
12:31AM 34.0881 -100.8692 152° Southeast 465 535 41,000  Level Fort Worth Center
12:32AM 33.9644 -100.8042 156° South 465 535 41,000  Level Fort Worth Center
12:33AM 33.8431 -100.7419 157° South 470 541 41,000  Level Fort Worth Center
12:34AM 33.7258 -100.6750 155° Southeast 475 547 41,000  Level Fort Worth Center
12:35AM 33.6064 -100.6133 157° South 475 547 41,000  Level Fort Worth Center
12:36AM 33.4892 -100.5492 155° Southeast 470 541 41,000  Level Fort Worth Center
12:37AM 33.3675 -100.4853 156° South 470 541 41,000  Level Fort Worth Center
12:38AM 33.2503 -100.4214 155° Southeast 475 547 41,000  Level Fort Worth Center
12:39AM 33.1306 -100.3603 157° South 475 547 41,000  Level Fort Worth Center
12:40AM 33.0111 -100.2969 156° South 475 547 41,000  Level Fort Worth Center
12:41AM 32.8933 -100.2339 156° South 475 547 41,000  Level Fort Worth Center
12:42AM 32.7717 -100.1731 157° South 475 547 41,000  Level Fort Worth Center
12:43AM 32.6519 -100.1103 156° South 475 547 41,000  Level Fort Worth Center
12:44AM 32.5300 -100.0500 157° South 475 547 41,000  Level Fort Worth Center
12:45AM 32.4125 -99.9850 155° Southeast 470 541 41,000  Level Fort Worth Center
12:46AM 32.3031 -99.9278 156° South 475 547 41,000  Level Fort Worth Center
12:47AM 32.1853 -99.8656 156° South 475 547 41,000  Level Fort Worth Center
12:49AM 32.0047 -99.7717 156° South 470 541 41,000  Level Houston Center
12:50AM 31.8856 -99.7097 156° South 469 540 41,000  Level Houston Center
12:51AM 31.7667 -99.6483 156° South 466 536 41,000  Level Houston Center
12:52AM 31.6475 -99.5869 156° South 467 537 41,000 -120 Level Houston Center
12:53AM 31.5272 -99.5272 157° South 468 539 40,800 -1,320 Descending Houston Center
12:54AM 31.3992 -99.4606 156° South 459 528 38,400 -2,400 Descending Houston Center
12:55AM 31.2928 -99.4072 157° South 459 528 36,000 -2,340 Descending Houston Center
12:56AM 31.1708 -99.3461 157° South 473 544 33,800 -2,280 Descending Houston Center
12:57AM 31.0450 -99.2814 156° South 490 564 31,500 -2,520 Descending Houston Center
12:58AM 30.9214 -99.2194 157° South 484 557 28,800 -2,640 Descending Houston Center
12:59AM 30.8014 -99.1594 157° South 473 544 26,300 -2,640 Descending Houston Center
01:00AM 30.6731 -99.0956 157° South 446 513 23,500 -2,580 Descending Houston Center
01:01AM 30.5647 -99.0414 157° South 427 491 21,200 -2,340 Descending Houston Center
01:02AM 30.4592 -98.9894 157° South 412 474 18,900 -2,160 Descending Houston Center
01:03AM 30.3583 -98.9386 156° South 398 458 16,900 -2,220 Descending Houston Center
01:04AM 30.2597 -98.8886 156° South 381 438 14,500 -2,340 Descending Houston Center
01:04AM 30.2164 -98.8683 158° South 375 432 13,400 -2,220 Descending Houston Center
01:05AM 30.1647 -98.8419 156° South 371 427 12,300 -2,220 Descending Houston Center
01:05AM 30.1219 -98.8236 160° South 362 417 11,200 -2,040 Descending Houston Center
01:06AM 30.0744 -98.7972 154° Southeast 355 409 10,300 -1,440 Descending Houston Center
01:06AM 30.0342 -98.7786 158° South 341 392 9,800 -840 Descending Houston Center
01:07AM 29.9922 -98.7567 156° South 320 368 9,500 -1,020 Descending Houston Center
01:07AM 29.9594 -98.7414 158° South 290 334 8,800 -1,500 Descending Houston Center
01:08AM 29.9186 -98.7214 157° South 286 329 8,000 -1,920 Descending Houston Center
01:08AM 29.8783 -98.7028 158° South 284 327 6,900 -1,740 Descending Houston Center
01:09AM 29.8436 -98.6839 155° Southeast 293 337 6,300 -1,380 Descending Houston Center
01:09AM 29.8036 -98.6661 159° South 289 333 5,500 -1,320 Descending Houston Center
01:10AM 29.7714 -98.6489 155° Southeast 284 327 5,000 -1,200 Descending Houston Center
01:10AM 29.7333 -98.6311 158° South 276 318 4,300 -900 Descending Houston Center
01:11AM 29.7039 -98.6156 155° Southeast 268 308 4,100 -600 Descending Houston Center
01:11AM 29.6717 -98.6000 157° South 242 278 3,700 -720 Descending Houston Center
01:12AM 29.6436 -98.5864 157° South 240 276 3,400 -900 Descending Houston Center
01:12AM 29.6172 -98.5775 164° South 189 217 2,800 -840 Descending Houston Center
01:13AM 29.6008 -98.5603 138° Southeast 180 207 2,600 -720 Descending Houston Center
01:13AM 29.5869 -98.5450 136° Southeast 136 157 2,100 -720 Descending Houston Center
01:14AM 29.5769 -98.5292 126° Southeast 134 154 1,900 -600 Descending Houston Center
01:14AM 29.5653 -98.5164 136° Southeast 112 129 1,500 -600 Descending Houston Center
01:15AM 29.5561 -98.5006 124° Southeast 119 137 1,300 -420 Descending Houston Center
01:16AM 29.5369 -98.4767 133° Southeast 118 136 900 -420 Descending Houston Center
01:18AM 29.5333 -98.4667 156° South  Level FlightAware Approximate
01:25AM 29.5340 -98.4691 156° South  Level Estimated